Terminal Aerodrome Forecast
Issued by NWS Cleveland, OH

Home | Current Version | Previous Version | Graphics & Text | Print | Product List | Glossary On
Versions: 1 2 3 4 5 6 7 8 9 10 11 12 13 14 15 16 17 18 19 20 21 22 23 24 25 26
000
FTUS41 KCLE 112327
TAFERI
TAF
KERI 112327Z 1200/1224 18008KT P6SM SCT035 OVC060
      TEMPO 1200/1204 2SM -SHSN BKN025
     FM120400 17009KT P6SM -SHSN SCT035 BKN060
     FM120800 VRB05KT 5SM -SN SCT015 OVC035
     FM121000 28010KT 1SM -SN SCT008 OVC015
     FM121400 31015G25KT 1 1/2SM -SHSN OVC015=

USA.gov is the U.S. government's official web portal to all federal, state and local government web resources and services.